KPHX/PHX METAR and TAF weather

Enter ICAO airport designator
Station Type Date Time Source
KPHX METAR 2023/02/05 23:51 UTC NOAA

KPHX 052351Z 26010KT 10SM FEW250 23/00 A2998 RMK AO2 SLP143 T02330000 10239 20167 55014


Station Type Date Time Source
KPHX Decoded METAR 2023/02/05 23:51 UTC NOAA

Phoenix, Phoenix Sky Harbor International Airport, AZ, United States (KPHX) 33-26-03N 112-03-04W 336M
Feb 05, 2023 - 06:51 PM EST / 2023.02.05 2351 UTC
Wind: from the W (260 degrees) at 12 MPH (10 KT):0
Visibility: 10 mile(s):0
Sky conditions: mostly clear
Temperature: 73.9 F (23.3 C)
Dew Point: 32.0 F (0.0 C)
Relative Humidity: 21%
Pressure (altimeter): 29.98 in. Hg (1015 hPa)
Pressure tendency: 0.04 inches (1.4 hPa) lower than three hours ago
ob: KPHX 052351Z 26010KT 10SM FEW250 23/00 A2998 RMK AO2 SLP143 T02330000 10239 20167 55014
cycle: 0

Station Type Date Time Source
KPHX TAF 2023/02/05 21:54 UTC NOAA

TAF
AMD KPHX 052052Z 0521/0624 25004KT P6SM SKC
FM060600 VRB06KT P6SM FEW250
FM061300 27007KT P6SM FEW200
FM062000 28010G18KT P6SM FEW200

Example: see airport list